Time;durP1;ratioP1;P1;durP2;ratioP2;P2;SDS_P1;SDS_P2;PMS_P1;PMS_P2;Temp;Humidity;BMP_temperature;BMP_pressure;BME280_temperature;BME280_humidity;BME280_pressure;Samples;Min_cycle;Max_cycle;Signal;HPM_P1;HPM_P2
2022/08/29 00:01:51;;;;;;;19.00;11.18;;;;;;;14.45;95.12;102135.50;5075551;28;20074;-65
2022/08/29 00:04:17;;;;;;;15.80;10.48;;;;;;;14.42;95.43;102128.47;5069015;28;20468;-64
2022/08/29 00:06:42;;;;;;;18.08;11.35;;;;;;;14.38;95.37;102124.84;5068246;28;20031;-64
2022/08/29 00:09:07;;;;;;;15.82;10.43;;;;;;;14.34;95.68;102128.19;5069355;28;20028;-63
2022/08/29 00:11:33;;;;;;;16.50;10.48;;;;;;;14.29;96.04;102128.03;5068510;28;20047;-64
2022/08/29 00:13:58;;;;;;;15.95;9.98;;;;;;;14.21;96.31;102124.22;5067972;28;20020;-64
2022/08/29 00:16:23;;;;;;;18.77;11.10;;;;;;;14.14;96.48;102125.72;5068259;28;20027;-64
2022/08/29 00:18:49;;;;;;;18.48;10.63;;;;;;;14.08;96.99;102128.09;5068286;28;20381;-64
2022/08/29 00:21:14;;;;;;;17.63;10.63;;;;;;;14.02;97.91;102126.16;5067731;28;20052;-64
2022/08/29 00:23:40;;;;;;;17.85;10.55;;;;;;;13.99;98.17;102120.81;5068534;28;20106;-64
2022/08/29 00:26:06;;;;;;;21.48;11.32;;;;;;;13.97;98.22;102117.28;5067356;28;20064;-64
2022/08/29 00:28:31;;;;;;;18.15;12.27;;;;;;;13.91;98.74;102117.91;5067032;28;20024;-64
2022/08/29 00:30:57;;;;;;;21.90;13.45;;;;;;;13.85;99.42;102117.66;5067922;28;20024;-64
2022/08/29 00:33:22;;;;;;;19.23;12.13;;;;;;;13.82;99.48;102117.56;5067570;28;20484;-64
2022/08/29 00:35:47;;;;;;;21.25;12.20;;;;;;;13.78;99.77;102113.06;5067223;28;20024;-64
2022/08/29 00:38:15;;;;;;;20.02;12.15;;;;;;;13.74;100.00;102118.97;5065270;28;20094;-64
2022/08/29 00:40:47;;;;;;;18.15;12.25;;;;;;;13.68;100.00;102123.13;5076612;28;20012;-64
2022/08/29 00:43:13;;;;;;;20.42;13.38;;;;;;;13.61;100.00;102126.31;5087530;28;20115;-64
2022/08/29 00:45:52;;;;;;;19.23;12.60;;;;;;;13.54;100.00;102127.78;5087988;28;20428;-63
2022/08/29 00:48:19;;;;;;;18.45;11.38;;;;;;;13.51;100.00;102125.00;5087995;28;20036;-63
2022/08/29 00:50:53;;;;;;;19.63;11.38;;;;;;;13.51;100.00;102135.41;5088327;28;20051;-63
2022/08/29 00:53:28;;;;;;;18.88;11.35;;;;;;;13.50;100.00;102130.16;5086961;28;20052;-63
2022/08/29 00:55:54;;;;;;;18.10;11.55;;;;;;;13.47;100.00;102127.44;5087827;28;20048;-64
2022/08/29 00:58:41;;;;;;;19.88;12.52;;;;;;;13.37;100.00;102120.94;5087382;28;20375;-63
2022/08/29 01:01:07;;;;;;;18.50;12.23;;;;;;;13.28;100.00;102124.06;5061028;28;20036;-64
2022/08/29 01:03:34;;;;;;;19.77;12.50;;;;;;;13.22;100.00;102119.50;5088141;28;20035;-64
2022/08/29 01:06:00;;;;;;;18.55;11.77;;;;;;;13.18;100.00;102136.72;5087588;28;20050;-63
2022/08/29 01:08:26;;;;;;;18.52;12.65;;;;;;;13.15;100.00;102136.56;5079611;28;20028;-64
2022/08/29 01:13:40;;;;;;;19.58;12.68;;;;;;;13.07;100.00;102130.16;5087658;28;20089;-63
2022/08/29 01:16:07;;;;;;;20.65;12.23;;;;;;;13.02;100.00;102129.97;5087048;28;20749;-64
2022/08/29 01:18:35;;;;;;;17.35;11.27;;;;;;;13.03;100.00;102138.66;5087463;28;20081;-63
2022/08/29 01:21:18;;;;;;;18.88;12.20;;;;;;;13.07;100.00;102135.38;5087457;28;20387;-64
2022/08/29 01:23:53;;;;;;;20.02;12.02;;;;;;;13.09;100.00;102139.81;5086810;28;20039;-64
2022/08/29 01:26:20;;;;;;;19.88;12.13;;;;;;;13.05;100.00;102134.41;5086687;28;20027;-63
2022/08/29 01:28:50;;;;;;;19.33;11.55;;;;;;;13.00;100.00;102141.13;5087393;28;20115;-63
2022/08/29 01:31:21;;;;;;;17.98;11.63;;;;;;;12.91;100.00;102136.41;5086921;28;20035;-64
2022/08/29 01:33:53;;;;;;;15.45;11.40;;;;;;;12.82;100.00;102136.91;5086876;28;20345;-64
2022/08/29 01:36:22;;;;;;;18.98;11.55;;;;;;;12.72;100.00;102131.31;5087083;28;20110;-64
2022/08/29 01:38:48;;;;;;;18.27;11.70;;;;;;;12.69;100.00;102138.06;5080734;28;20052;-63
2022/08/29 01:41:15;;;;;;;16.25;11.25;;;;;;;12.64;100.00;102135.28;5068479;28;20070;-64
2022/08/29 01:43:47;;;;;;;17.92;11.07;;;;;;;12.58;100.00;102127.19;5066620;28;20484;-64
2022/08/29 01:46:16;;;;;;;15.98;11.10;;;;;;;12.58;100.00;102132.41;5086597;28;20031;-64
2022/08/29 01:48:43;;;;;;;18.83;11.45;;;;;;;12.53;100.00;102115.72;5088794;28;20024;-64
2022/08/29 01:51:09;;;;;;;19.20;11.63;;;;;;;12.52;100.00;102120.00;5091071;28;20557;-63
2022/08/29 01:53:35;;;;;;;16.17;11.93;;;;;;;12.50;100.00;102121.69;5076931;28;20028;-64
2022/08/29 01:56:20;;;;;;;22.33;11.13;;;;;;;12.47;100.00;102127.63;5090790;28;20078;-64
2022/08/29 01:58:47;;;;;;;18.38;11.32;;;;;;;12.46;100.00;102125.84;5082259;28;20120;-64
2022/08/29 02:01:17;;;;;;;16.55;11.30;;;;;;;12.47;100.00;102132.81;5091231;28;20379;-64
2022/08/29 02:03:44;;;;;;;17.00;12.00;;;;;;;12.43;100.00;102130.88;5091334;28;20019;-63
2022/08/29 02:06:09;;;;;;;19.33;11.65;;;;;;;12.39;100.00;102138.50;5090492;28;20085;-64
2022/08/29 02:08:40;;;;;;;17.45;10.18;;;;;;;12.34;100.00;102131.38;5079282;28;20328;-64
2022/08/29 02:11:08;;;;;;;19.92;12.15;;;;;;;12.33;100.00;102136.50;5090242;28;20081;-64
2022/08/29 02:13:35;;;;;;;17.00;11.20;;;;;;;12.28;100.00;102135.41;5079267;28;20116;-64
2022/08/29 02:16:02;;;;;;;15.20;11.27;;;;;;;12.22;100.00;102131.72;5088890;28;20471;-64
2022/08/29 02:18:27;;;;;;;13.93;11.48;;;;;;;12.21;100.00;102129.94;5091203;28;20585;-64
2022/08/29 02:20:52;;;;;;;17.13;11.35;;;;;;;12.19;100.00;102131.56;5090447;28;20028;-64
2022/08/29 02:23:18;;;;;;;14.13;11.23;;;;;;;12.17;100.00;102135.81;5091053;28;20023;-64
2022/08/29 02:25:46;;;;;;;19.75;13.13;;;;;;;12.16;100.00;102139.22;5089731;28;20572;-64
2022/08/29 02:28:13;;;;;;;17.70;13.18;;;;;;;12.13;100.00;102144.28;5090681;28;20516;-64
2022/08/29 02:30:41;;;;;;;19.27;13.32;;;;;;;12.12;100.00;102139.91;5090753;28;20495;-64
2022/08/29 02:33:07;;;;;;;20.90;13.57;;;;;;;12.12;100.00;102145.09;5090307;28;20024;-64
2022/08/29 02:35:33;;;;;;;19.20;13.57;;;;;;;12.11;100.00;102143.31;5090820;28;20534;-64
2022/08/29 02:37:59;;;;;;;20.45;13.32;;;;;;;12.10;100.00;102141.53;5090299;28;20028;-64
2022/08/29 02:40:26;;;;;;;18.52;11.80;;;;;;;12.11;100.00;102153.69;5090270;28;20477;-64
2022/08/29 02:42:52;;;;;;;17.23;11.73;;;;;;;12.08;100.00;102149.22;5082669;28;20047;-65
2022/08/29 02:45:19;;;;;;;14.98;10.85;;;;;;;12.07;100.00;102159.56;5074992;28;20315;-64
2022/08/29 02:47:44;;;;;;;17.75;12.98;;;;;;;12.06;100.00;102150.88;5085272;28;20044;-64
2022/08/29 02:50:10;;;;;;;16.73;12.70;;;;;;;12.03;100.00;102155.03;5084967;28;20015;-63
2022/08/29 02:52:38;;;;;;;21.45;13.32;;;;;;;12.01;100.00;102153.25;5085310;28;20395;-64
2022/08/29 02:55:05;;;;;;;20.55;13.75;;;;;;;12.03;100.00;102160.22;5090370;28;20373;-63
2022/08/29 02:57:30;;;;;;;24.45;14.48;;;;;;;12.02;100.00;102151.53;5089827;28;20498;-63
2022/08/29 02:59:55;;;;;;;17.40;13.20;;;;;;;12.05;100.00;102156.91;5081034;28;20021;-64
2022/08/29 03:02:21;;;;;;;19.17;13.75;;;;;;;12.07;100.00;102154.38;5078019;28;20145;-63
2022/08/29 03:04:46;;;;;;;22.83;14.02;;;;;;;12.06;100.00;102148.25;5089779;28;20054;-63
2022/08/29 03:07:11;;;;;;;20.15;13.95;;;;;;;12.06;100.00;102144.75;5089690;28;20032;-64
2022/08/29 03:09:37;;;;;;;14.68;11.68;;;;;;;12.05;100.00;102143.00;5089581;28;20067;-63
2022/08/29 03:12:02;;;;;;;20.40;13.95;;;;;;;12.06;100.00;102139.56;5089730;28;20036;-64
2022/08/29 03:14:28;;;;;;;17.33;12.90;;;;;;;12.06;100.00;102142.16;5089407;28;20020;-65
2022/08/29 03:16:53;;;;;;;16.13;11.98;;;;;;;12.06;100.00;102140.47;5089608;28;20132;-63
2022/08/29 03:19:18;;;;;;;19.08;12.48;;;;;;;12.04;100.00;102147.31;5089734;28;20823;-63
2022/08/29 03:21:44;;;;;;;18.17;13.07;;;;;;;11.98;100.00;102147.91;5089738;28;20050;-63
2022/08/29 03:24:10;;;;;;;15.95;11.23;;;;;;;11.88;100.00;102151.78;5089367;28;20035;-63
2022/08/29 03:26:35;;;;;;;20.55;13.20;;;;;;;11.82;100.00;102146.28;5089634;28;20107;-63
2022/08/29 03:29:01;;;;;;;17.08;13.18;;;;;;;11.74;100.00;102138.13;5085201;28;20060;-63
2022/08/29 03:31:27;;;;;;;18.90;12.38;;;;;;;11.72;100.00;102139.78;5089422;28;20166;-63
2022/08/29 03:33:52;;;;;;;18.08;12.18;;;;;;;11.68;100.00;102137.81;5089238;28;20518;-63
2022/08/29 03:36:17;;;;;;;15.05;12.07;;;;;;;11.67;100.00;102136.06;5089116;28;20504;-63
2022/08/29 03:38:45;;;;;;;15.52;12.30;;;;;;;11.67;100.00;102137.75;5089077;28;20027;-64
2022/08/29 03:41:11;;;;;;;18.15;12.50;;;;;;;11.67;100.00;102136.06;5088584;28;20024;-63
2022/08/29 03:43:37;;;;;;;18.13;12.30;;;;;;;11.62;100.00;102127.16;5088796;28;20044;-63
2022/08/29 03:46:03;;;;;;;16.77;12.48;;;;;;;11.59;100.00;102127.00;5089192;28;20533;-63
2022/08/29 03:48:28;;;;;;;17.45;12.40;;;;;;;11.57;100.00;102123.44;5088891;28;20033;-64
2022/08/29 03:50:53;;;;;;;15.48;11.88;;;;;;;11.51;100.00;102119.72;5088696;28;20539;-64
2022/08/29 03:53:18;;;;;;;14.63;11.98;;;;;;;11.51;100.00;102113.66;5089217;28;20054;-63
2022/08/29 03:55:45;;;;;;;15.05;11.77;;;;;;;11.51;100.00;102114.53;5089030;28;20452;-63
2022/08/29 03:58:10;;;;;;;16.92;11.70;;;;;;;11.53;100.00;102105.13;5076107;28;20028;-63
2022/08/29 04:00:36;;;;;;;16.35;11.60;;;;;;;11.55;100.00;102101.72;5067922;28;20545;-63
2022/08/29 04:03:01;;;;;;;17.02;12.48;;;;;;;11.53;100.00;102105.13;5068745;28;20532;-63
2022/08/29 04:05:26;;;;;;;16.30;12.10;;;;;;;11.52;100.00;102102.44;5068326;28;20066;-63
2022/08/29 04:07:57;;;;;;;16.67;11.90;;;;;;;11.51;100.00;102101.56;5068206;28;20073;-63
2022/08/29 04:10:26;;;;;;;15.23;11.90;;;;;;;11.50;100.00;102106.69;5068301;28;20098;-63
2022/08/29 04:12:52;;;;;;;16.13;12.15;;;;;;;11.49;100.00;102111.00;5068544;28;20451;-63
2022/08/29 04:15:17;;;;;;;13.95;11.32;;;;;;;11.47;100.00;102107.44;5068910;28;20020;-63
2022/08/29 04:17:43;;;;;;;16.95;11.65;;;;;;;11.47;100.00;102107.44;5068444;28;20016;-63
2022/08/29 04:20:10;;;;;;;17.33;11.73;;;;;;;11.46;100.00;102110.81;5068892;28;20841;-64
2022/08/29 04:22:38;;;;;;;17.92;12.68;;;;;;;11.43;100.00;102121.06;5067655;28;20013;-63
2022/08/29 04:25:09;;;;;;;14.68;11.77;;;;;;;11.44;100.00;102117.63;5076346;28;20028;-63
2022/08/29 04:27:35;;;;;;;;;;;;;;;11.45;100.00;102121.13;5071576;28;20035;-63
2022/08/29 04:30:04;;;;;;;15.15;12.15;;;;;;;11.45;100.00;102121.13;5067365;28;19908;-63
2022/08/29 04:32:30;;;;;;;17.50;12.60;;;;;;;11.45;100.00;102114.25;5066807;28;20028;-63
2022/08/29 04:34:56;;;;;;;20.50;13.23;;;;;;;11.43;100.00;102110.69;5065160;28;20032;-63
2022/08/29 04:37:21;;;;;;;16.25;12.52;;;;;;;11.43;100.00;102121.06;5066516;28;20029;-63
2022/08/29 04:39:47;;;;;;;20.55;13.95;;;;;;;11.42;100.00;102121.91;5059956;28;20035;-63
2022/08/29 04:42:12;;;;;;;21.13;14.98;;;;;;;11.41;100.00;102125.28;5061483;28;20094;-63
2022/08/29 04:44:38;;;;;;;22.13;14.35;;;;;;;11.43;100.00;102125.34;5046316;28;20021;-63
2022/08/29 04:47:04;;;;;;;23.33;14.10;;;;;;;11.44;100.00;102129.75;5044996;28;20069;-62
2022/08/29 04:49:29;;;;;;;16.70;13.40;;;;;;;11.41;100.00;102126.19;5043852;28;20489;-63
2022/08/29 04:51:55;;;;;;;16.88;12.30;;;;;;;11.41;100.00;102127.88;5045149;28;20108;-62
2022/08/29 04:54:20;;;;;;;16.38;12.32;;;;;;;11.41;100.00;102128.78;5048091;28;20032;-62
2022/08/29 04:56:45;;;;;;;18.48;12.85;;;;;;;11.41;100.00;102133.06;5048052;28;20033;-64
2022/08/29 04:59:11;;;;;;;15.70;12.13;;;;;;;11.39;100.00;102126.91;5049975;28;20017;-63
2022/08/29 05:01:36;;;;;;;16.55;11.55;;;;;;;11.37;100.00;102133.75;5047889;28;20090;-62
2022/08/29 05:04:02;;;;;;;16.98;12.10;;;;;;;11.34;100.00;102128.38;5048366;28;20082;-62
2022/08/29 05:06:27;;;;;;;17.02;11.80;;;;;;;11.32;100.00;102130.91;5047216;28;20024;-63
2022/08/29 05:08:53;;;;;;;15.30;11.38;;;;;;;11.29;100.00;102136.88;5047764;28;20024;-62
2022/08/29 05:11:19;;;;;;;14.63;10.90;;;;;;;11.29;100.00;102134.25;5050491;28;20016;-63
2022/08/29 05:13:45;;;;;;;16.02;11.43;;;;;;;11.29;100.00;102139.44;5048563;28;20508;-62
2022/08/29 05:16:12;;;;;;;14.30;11.02;;;;;;;11.28;100.00;102140.25;5050967;28;20056;-63
2022/08/29 05:18:38;;;;;;;14.07;11.27;;;;;;;11.27;100.00;102138.47;5048089;28;20082;-62
2022/08/29 05:21:04;;;;;;;15.77;11.65;;;;;;;11.27;100.00;102135.88;5048251;28;20380;-64
2022/08/29 05:23:30;;;;;;;16.30;11.25;;;;;;;11.32;100.00;102145.59;5045804;28;20028;-62
2022/08/29 05:25:58;;;;;;;13.88;10.93;;;;;;;11.36;100.00;102145.84;5047739;28;20033;-63
2022/08/29 05:28:24;;;;;;;13.55;10.80;;;;;;;11.42;100.00;102147.84;5049592;28;20021;-62
2022/08/29 05:30:49;;;;;;;15.30;11.88;;;;;;;11.48;100.00;102142.03;5052444;28;20488;-62
2022/08/29 05:33:15;;;;;;;16.10;12.50;;;;;;;11.50;100.00;102149.09;5067024;28;20021;-62
2022/08/29 05:35:41;;;;;;;17.77;12.38;;;;;;;11.52;100.00;102147.47;5078289;28;20031;-63
2022/08/29 05:38:07;;;;;;;15.10;11.18;;;;;;;11.55;100.00;102156.25;5068251;28;20507;-64
2022/08/29 05:40:32;;;;;;;15.15;10.65;;;;;;;11.58;100.00;102161.56;5072716;28;20027;-63
2022/08/29 05:42:58;;;;;;;16.77;10.88;;;;;;;11.60;100.00;102166.00;5073146;28;20241;-62
2022/08/29 05:45:23;;;;;;;14.93;10.85;;;;;;;11.66;100.00;102160.22;5056568;28;20438;-62
2022/08/29 05:47:49;;;;;;;14.88;10.82;;;;;;;11.72;100.00;102159.66;5045893;28;20398;-63
2022/08/29 05:50:15;;;;;;;16.23;10.73;;;;;;;11.79;100.00;102171.22;5044477;28;20052;-62
2022/08/29 05:52:42;;;;;;;11.43;9.57;;;;;;;11.89;100.00;102170.88;5048698;28;20025;-62
2022/08/29 05:55:07;;;;;;;13.75;9.88;;;;;;;11.99;100.00;102170.47;5056564;28;20031;-63
2022/08/29 05:57:33;;;;;;;20.38;10.90;;;;;;;12.08;100.00;102166.53;5063208;28;20019;-63
2022/08/29 05:59:58;;;;;;;13.85;9.93;;;;;;;12.18;100.00;102170.50;5066692;28;20024;-62
2022/08/29 06:02:24;;;;;;;14.43;10.43;;;;;;;12.25;100.00;102172.53;5064657;28;20020;-62
2022/08/29 06:04:50;;;;;;;11.18;9.70;;;;;;;12.39;100.00;102169.69;5046728;28;20424;-63
2022/08/29 06:07:15;;;;;;;15.02;10.10;;;;;;;12.51;100.00;102169.34;5049841;28;20024;-62
2022/08/29 06:09:42;;;;;;;12.95;9.55;;;;;;;12.60;100.00;102173.28;5044353;28;20013;-62
2022/08/29 06:12:08;;;;;;;12.70;8.45;;;;;;;12.70;100.00;102177.16;5058242;28;20189;-62
2022/08/29 06:14:34;;;;;;;13.35;9.88;;;;;;;12.79;100.00;102170.59;5064455;28;20035;-61
2022/08/29 06:16:59;;;;;;;12.30;9.20;;;;;;;12.88;100.00;102181.38;5057654;28;20411;-60
2022/08/29 06:19:25;;;;;;;10.07;9.07;;;;;;;12.94;100.00;102181.66;5053054;28;20089;-61
2022/08/29 06:21:53;;;;;;;11.95;9.00;;;;;;;13.01;100.00;102177.63;5064989;28;20547;-61
2022/08/29 06:24:19;;;;;;;10.38;9.13;;;;;;;13.08;100.00;102177.06;5060436;28;20020;-61
2022/08/29 06:26:44;;;;;;;11.68;9.68;;;;;;;13.14;100.00;102181.66;5063032;28;20373;-61
2022/08/29 06:29:10;;;;;;;14.70;9.02;;;;;;;13.21;100.00;102180.19;5049588;28;20025;-61
2022/08/29 06:31:36;;;;;;;10.98;9.02;;;;;;;13.27;100.00;102189.97;5048789;28;20021;-61
2022/08/29 06:34:04;;;;;;;11.90;9.23;;;;;;;13.30;100.00;102187.50;5045913;28;20457;-61
2022/08/29 06:36:30;;;;;;;12.57;9.90;;;;;;;13.29;100.00;102189.19;5050538;28;20024;-61
2022/08/29 06:38:57;;;;;;;13.80;8.45;;;;;;;13.29;100.00;102184.00;5062589;28;20595;-61
2022/08/29 06:41:23;;;;;;;13.80;9.60;;;;;;;13.32;100.00;102188.44;5049380;28;20086;-61
2022/08/29 06:43:49;;;;;;;11.05;8.77;;;;;;;13.38;100.00;102186.13;5052144;28;20045;-62
2022/08/29 06:46:21;;;;;;;11.43;9.00;;;;;;;13.47;100.00;102192.53;5049654;28;20465;-61
2022/08/29 06:48:46;;;;;;;13.50;9.63;;;;;;;13.56;100.00;102195.56;5053585;28;20029;-61
2022/08/29 06:51:12;;;;;;;11.85;9.15;;;;;;;13.65;100.00;102201.13;5050700;28;20504;-61
2022/08/29 06:53:37;;;;;;;9.68;8.05;;;;;;;13.73;100.00;102201.44;5051342;28;20029;-61
2022/08/29 06:56:04;;;;;;;11.40;8.20;;;;;;;13.84;100.00;102199.28;5054440;28;20028;-62
2022/08/29 06:58:29;;;;;;;11.23;8.40;;;;;;;14.00;100.00;102199.88;5055930;28;20465;-61
2022/08/29 07:00:55;;;;;;;10.57;7.10;;;;;;;14.16;100.00;102202.25;5049216;28;20271;-61
2022/08/29 07:03:21;;;;;;;12.65;7.15;;;;;;;14.31;100.00;102195.88;5049788;28;20146;-62
2022/08/29 07:05:53;;;;;;;10.02;7.30;;;;;;;14.41;100.00;102190.16;5052988;28;20039;-61
2022/08/29 07:08:18;;;;;;;;;;;;;;;14.56;99.43;102196.78;5050830;28;20028;-61
2022/08/29 07:10:44;;;;;;;9.05;6.10;;;;;;;14.70;96.10;102205.09;5060455;28;19913;-62
2022/08/29 07:13:10;;;;;;;7.55;6.05;;;;;;;14.91;94.74;102208.47;5049741;28;20502;-62
2022/08/29 07:15:35;;;;;;;11.45;7.10;;;;;;;15.15;93.57;102204.97;5048904;28;20021;-62
2022/08/29 07:18:01;;;;;;;10.52;5.97;;;;;;;15.57;90.34;102195.91;5049022;28;20032;-61
2022/08/29 07:20:26;;;;;;;9.20;6.68;;;;;;;16.00;88.58;102193.81;5048275;28;20491;-61
2022/08/29 07:22:51;;;;;;;7.80;5.47;;;;;;;16.46;86.92;102198.63;5054174;28;20048;-61
2022/08/29 07:25:19;;;;;;;9.95;6.00;;;;;;;17.03;85.69;102191.50;5059569;28;20480;-61
2022/08/29 07:27:45;;;;;;;6.43;4.88;;;;;;;17.59;82.08;102188.53;5051864;28;20074;-62
2022/08/29 07:30:12;;;;;;;7.53;5.10;;;;;;;18.15;78.41;102187.19;5048789;28;20283;-61
2022/08/29 07:32:37;;;;;;;8.38;5.10;;;;;;;18.55;72.50;102188.88;5063317;28;20128;-62
2022/08/29 07:35:02;;;;;;;8.75;5.30;;;;;;;18.98;71.69;102187.97;5069157;28;20101;-61
2022/08/29 07:37:28;;;;;;;7.65;5.10;;;;;;;19.41;68.96;102186.09;5069536;28;20039;-62
2022/08/29 07:39:53;;;;;;;7.10;4.15;;;;;;;19.89;68.29;102191.22;5068233;28;20043;-62
2022/08/29 07:42:18;;;;;;;6.53;3.83;;;;;;;20.22;62.52;102182.91;5089128;28;20056;-62
2022/08/29 07:44:43;;;;;;;6.72;4.10;;;;;;;20.36;60.01;102176.06;5082532;28;20085;-62
2022/08/29 07:47:09;;;;;;;5.47;3.90;;;;;;;20.38;60.79;102173.47;5053862;28;20039;-63
2022/08/29 07:49:34;;;;;;;8.15;2.53;;;;;;;20.51;58.15;102179.75;5068716;28;20103;-62
2022/08/29 07:51:59;;;;;;;6.78;2.67;;;;;;;20.35;55.94;102170.78;5068860;28;20035;-62
2022/08/29 07:54:25;;;;;;;6.53;3.05;;;;;;;20.39;56.85;102176.13;5068660;28;20487;-62
2022/08/29 07:56:52;;;;;;;3.88;2.53;;;;;;;20.38;54.31;102174.34;5067847;28;20362;-63
2022/08/29 07:59:19;;;;;;;4.60;2.70;;;;;;;20.35;56.57;102174.31;5074996;28;20052;-62
2022/08/29 08:01:44;;;;;;;5.30;2.88;;;;;;;20.07;54.85;102179.22;5068526;28;20031;-62
2022/08/29 08:04:11;;;;;;;4.93;2.60;;;;;;;19.88;54.97;102181.53;5068720;28;20025;-62
2022/08/29 08:06:39;;;;;;;4.93;2.22;;;;;;;19.86;54.03;102177.16;5068727;28;20025;-62
2022/08/29 08:09:06;;;;;;;6.78;2.45;;;;;;;20.07;54.35;102179.22;5067144;28;20632;-63
2022/08/29 08:11:31;;;;;;;6.10;2.35;;;;;;;20.41;56.38;102178.75;5068571;28;20040;-63
2022/08/29 08:13:57;;;;;;;5.55;3.05;;;;;;;20.79;54.23;102181.81;5074900;28;20110;-63
2022/08/29 08:16:25;;;;;;;6.82;2.55;;;;;;;20.80;52.43;102179.19;5067514;28;20476;-63
2022/08/29 08:18:50;;;;;;;4.63;2.60;;;;;;;20.71;53.35;102184.34;5068596;28;20017;-63
2022/08/29 08:21:16;;;;;;;6.65;2.70;;;;;;;20.55;52.50;102181.56;5060743;28;20499;-63
2022/08/29 08:23:41;;;;;;;8.57;3.25;;;;;;;20.52;53.12;102185.00;5067898;28;20102;-63
2022/08/29 08:26:09;;;;;;;5.35;2.80;;;;;;;20.68;53.88;102176.41;5068251;28;20016;-63
2022/08/29 08:28:35;;;;;;;4.38;2.40;;;;;;;20.73;51.51;102179.97;5067648;28;20487;-62
2022/08/29 08:31:04;;;;;;;4.55;2.58;;;;;;;21.13;51.37;102168.09;5067768;28;20211;-63
2022/08/29 08:33:29;;;;;;;4.00;2.28;;;;;;;21.56;50.40;102163.19;5067804;28;20090;-62
2022/08/29 08:35:56;;;;;;;3.05;2.22;;;;;;;21.98;50.14;102175.78;5067629;28;20468;-62
2022/08/29 08:38:21;;;;;;;4.90;3.25;;;;;;;22.15;48.51;102178.47;5067134;28;20056;-63
2022/08/29 08:41:09;;;;;;;4.70;3.17;;;;;;;22.22;49.42;102163.53;5081975;28;20133;-62
2022/08/29 08:44:05;;;;;;;6.75;3.30;;;;;;;22.04;49.96;102178.41;5087938;28;20104;-63
2022/08/29 08:46:36;;;;;;;7.07;2.80;;;;;;;21.79;49.33;102175.63;5073310;28;20060;-63
2022/08/29 08:49:28;;;;;;;5.80;3.72;;;;;;;21.60;50.05;102172.84;5075763;28;20035;-63
2022/08/29 08:52:01;;;;;;;5.68;3.60;;;;;;;21.39;48.91;102175.34;5054954;28;20048;-63
2022/08/29 08:54:31;;;;;;;7.55;4.35;;;;;;;21.32;50.43;102164.75;5059720;28;20091;-62
2022/08/29 08:57:03;;;;;;;7.10;4.20;;;;;;;21.30;50.39;102165.63;5061773;28;20033;-62
2022/08/29 08:59:41;;;;;;;6.70;4.00;;;;;;;21.09;50.54;102168.09;5066114;28;20032;-62
2022/08/29 09:02:39;;;;;;;8.32;4.22;;;;;;;21.09;51.69;102161.91;5066520;28;20060;-63
2022/08/29 09:05:36;;;;;;;4.95;3.38;;;;;;;21.27;50.88;102170.84;5053990;28;20460;-62
2022/08/29 09:08:36;;;;;;;6.55;3.08;;;;;;;21.32;51.05;102172.66;5059615;28;20036;-61
2022/08/29 09:11:16;;;;;;;4.63;2.83;;;;;;;21.27;49.57;102177.00;5051416;28;20060;-62
2022/08/29 09:14:04;;;;;;;4.13;2.60;;;;;;;21.11;50.57;102182.16;5054616;28;20025;-62
2022/08/29 09:16:39;;;;;;;3.88;2.55;;;;;;;21.01;50.67;102182.94;5057072;28;20055;-63
2022/08/29 09:19:08;;;;;;;4.90;2.90;;;;;;;20.89;51.00;102186.28;5047384;28;20024;-63
2022/08/29 09:21:43;;;;;;;5.35;3.10;;;;;;;20.73;50.92;102185.25;5057406;28;20050;-62
2022/08/29 09:24:17;;;;;;;5.13;2.65;;;;;;;20.64;51.57;102188.66;5052622;28;20021;-63
2022/08/29 09:26:43;;;;;;;5.35;3.00;;;;;;;20.56;51.70;102192.97;5062033;28;20111;-62
2022/08/29 09:29:12;;;;;;;4.65;3.13;;;;;;;20.42;52.23;102190.19;5054615;28;20174;-63
2022/08/29 09:31:37;;;;;;;3.88;2.85;;;;;;;20.32;51.91;102186.53;5059294;28;20028;-62
2022/08/29 09:34:07;;;;;;;5.00;3.00;;;;;;;20.16;52.81;102194.25;5063895;28;20020;-62
2022/08/29 09:36:43;;;;;;;4.28;2.72;;;;;;;20.13;53.63;102194.22;5066575;28;20025;-62
2022/08/29 09:39:24;;;;;;;4.93;2.97;;;;;;;20.08;53.35;102195.88;5058106;28;20488;-62
2022/08/29 09:42:16;;;;;;;4.60;2.95;;;;;;;20.07;54.27;102200.25;5082762;28;20040;-62
2022/08/29 09:44:52;;;;;;;7.05;2.95;;;;;;;20.07;54.96;102197.63;5066131;28;20549;-62
2022/08/29 09:47:22;;;;;;;5.05;2.97;;;;;;;20.05;55.49;102196.72;5065625;28;20489;-63
2022/08/29 09:50:18;;;;;;;5.32;2.65;;;;;;;20.04;55.41;102190.53;5060233;28;20043;-63
2022/08/29 09:53:04;;;;;;;5.10;3.05;;;;;;;20.01;54.79;102194.88;5056121;28;20028;-62
2022/08/29 09:55:43;;;;;;;5.28;3.25;;;;;;;20.00;55.44;102193.13;5059576;28;20040;-62
2022/08/29 09:58:14;;;;;;;6.43;3.70;;;;;;;20.06;54.54;102185.31;5053397;28;20016;-62
2022/08/29 10:00:43;;;;;;;4.35;2.55;;;;;;;20.24;54.71;102178.53;5056605;28;20441;-62
2022/08/29 10:03:20;;;;;;;5.38;3.38;;;;;;;20.57;54.38;102187.72;5054315;28;20461;-63
2022/08/29 10:05:46;;;;;;;7.60;3.35;;;;;;;20.89;53.60;102175.75;5049224;28;20115;-62
2022/08/29 10:08:29;;;;;;;7.22;3.30;;;;;;;21.17;52.73;102170.78;5058524;28;20064;-63
2022/08/29 10:10:58;;;;;;;4.65;3.58;;;;;;;21.16;51.30;102176.03;5054295;28;20050;-63
2022/08/29 10:13:36;;;;;;;8.10;3.63;;;;;;;20.94;51.68;102183.72;5051480;28;20108;-62
2022/08/29 10:16:10;;;;;;;8.00;3.80;;;;;;;20.74;53.01;102187.91;5053622;28;20065;-62
2022/08/29 10:19:00;;;;;;;7.53;3.38;;;;;;;20.67;53.97;102182.56;5058002;28;20227;-62
2022/08/29 10:21:45;;;;;;;5.57;3.55;;;;;;;20.69;55.03;102183.44;5063124;28;20473;-62
2022/08/29 10:24:28;;;;;;;5.97;3.60;;;;;;;20.77;54.00;102181.78;5056692;28;20044;-63
2022/08/29 10:27:08;;;;;;;4.88;3.28;;;;;;;20.82;54.33;102185.34;5060337;28;20167;-62
2022/08/29 10:29:52;;;;;;;5.75;2.88;;;;;;;20.77;51.92;102187.06;5054086;28;20062;-61
2022/08/29 10:32:55;;;;;;;5.65;2.92;;;;;;;20.82;53.37;102180.09;5057883;28;20025;-63
2022/08/29 10:35:32;;;;;;;6.82;3.03;;;;;;;20.79;52.12;102177.44;5059685;28;20099;-63
2022/08/29 10:38:00;;;;;;;4.38;2.92;;;;;;;20.66;51.86;102175.50;5052246;28;20035;-63
2022/08/29 10:40:46;;;;;;;3.40;2.60;;;;;;;20.87;53.27;102175.75;5054389;28;20584;-63
2022/08/29 10:43:37;;;;;;;6.53;3.45;;;;;;;21.06;51.65;102161.91;5054071;28;20041;-62
2022/08/29 10:46:31;;;;;;;6.63;3.45;;;;;;;21.44;51.15;102171.00;5060254;28;20039;-62
2022/08/29 10:49:09;;;;;;;7.80;3.03;;;;;;;21.52;50.76;102161.38;5049573;28;20037;-62
2022/08/29 10:52:09;;;;;;;4.60;2.63;;;;;;;21.78;49.85;102167.69;5062030;28;20476;-63
2022/08/29 10:54:59;;;;;;;7.00;3.03;;;;;;;21.89;50.00;102165.16;5053762;28;20023;-63
2022/08/29 10:58:02;;;;;;;6.82;3.30;;;;;;;21.88;49.67;102163.38;5052790;28;20047;-63
2022/08/29 11:00:52;;;;;;;4.10;2.88;;;;;;;21.71;48.82;102153.59;5056380;28;20020;-63
2022/08/29 11:03:34;;;;;;;3.53;2.50;;;;;;;21.90;50.18;102157.25;5063174;28;20409;-62
2022/08/29 11:06:05;;;;;;;4.50;2.90;;;;;;;22.24;50.23;102147.69;5049760;28;20412;-62
2022/08/29 11:08:39;;;;;;;5.07;2.70;;;;;;;22.31;47.88;102142.47;5056713;28;20039;-63
2022/08/29 11:11:05;;;;;;;3.60;2.50;;;;;;;22.40;48.57;102146.88;5053279;28;20424;-63
2022/08/29 11:13:43;;;;;;;4.65;2.95;;;;;;;22.46;47.97;102135.47;5050107;28;20086;-62
2022/08/29 11:16:13;;;;;;;4.95;2.80;;;;;;;22.58;49.40;102133.75;5050610;28;20032;-63
2022/08/29 11:18:48;;;;;;;6.25;3.20;;;;;;;22.73;48.78;102130.25;5049248;28;20507;-64
2022/08/29 11:21:58;;;;;;;4.07;2.70;;;;;;;22.77;48.10;102124.09;5048007;28;20029;-63
2022/08/29 11:24:29;;;;;;;5.18;2.72;;;;;;;22.69;47.48;102124.09;5004171;28;20060;-63
2022/08/29 11:26:54;;;;;;;;;;;;;;;22.79;48.27;102127.63;5004153;28;20033;-63